Time;durP1;ratioP1;P1;durP2;ratioP2;P2;SDS_P1;SDS_P2;PMS_P1;PMS_P2;Temp;Humidity;BMP_temperature;BMP_pressure;BME280_temperature;BME280_humidity;BME280_pressure;Samples;Min_cycle;Max_cycle;Signal;HPM_P1;HPM_P2
2021/03/19 00:01:33;;;;;;;21.50;15.63;;;;;;;1.55;100.00;101004.88;4986082;28;20046;-52
2021/03/19 00:04:00;;;;;;;27.30;16.90;;;;;;;1.47;100.00;100998.41;4986003;28;20054;-49
2021/03/19 00:06:26;;;;;;;23.35;16.85;;;;;;;1.48;100.00;101003.59;4986059;28;20054;-49
2021/03/19 00:08:53;;;;;;;26.52;17.20;;;;;;;1.48;100.00;100998.53;4985617;28;20919;-49
2021/03/19 00:11:19;;;;;;;25.63;17.40;;;;;;;1.48;100.00;101003.59;4987123;28;20057;-54
2021/03/19 00:13:47;;;;;;;26.15;17.30;;;;;;;1.37;100.00;101003.63;4985747;28;20085;-52
2021/03/19 00:16:13;;;;;;;26.50;18.20;;;;;;;1.51;100.00;101010.47;4986460;28;20149;-53
2021/03/19 00:18:40;;;;;;;27.00;18.55;;;;;;;1.55;100.00;101006.50;4985443;28;20089;-50
2021/03/19 00:21:07;;;;;;;27.13;17.83;;;;;;;1.49;100.00;100997.75;4986442;28;20046;-47
2021/03/19 00:23:33;;;;;;;26.20;17.25;;;;;;;1.56;100.00;101001.56;4985528;28;20046;-50
2021/03/19 00:26:01;;;;;;;26.05;17.73;;;;;;;1.60;100.00;100995.06;4985858;28;20050;-51
2021/03/19 00:28:27;;;;;;;25.35;16.98;;;;;;;1.56;100.00;100995.63;4985937;28;20069;-47
2021/03/19 00:30:54;;;;;;;26.33;17.58;;;;;;;1.51;100.00;101001.25;4985373;28;20665;-52
2021/03/19 00:33:21;;;;;;;25.30;17.63;;;;;;;1.53;100.00;101002.25;4986526;28;20416;-50
2021/03/19 00:35:48;;;;;;;25.15;16.95;;;;;;;1.83;100.00;101006.69;4985412;28;20124;-53
2021/03/19 00:38:15;;;;;;;25.17;17.10;;;;;;;1.85;100.00;101005.13;4986499;28;20050;-49
2021/03/19 00:40:41;;;;;;;21.45;16.15;;;;;;;1.96;100.00;101005.06;4985552;28;20834;-48
2021/03/19 00:43:10;;;;;;;24.85;16.92;;;;;;;1.66;100.00;101010.63;4986524;28;20169;-50
2021/03/19 00:45:37;;;;;;;23.98;16.85;;;;;;;1.93;100.00;101017.47;4985471;28;20042;-51
2021/03/19 00:48:04;;;;;;;23.60;16.23;;;;;;;1.84;100.00;101018.53;4986747;28;20054;-50
2021/03/19 00:50:40;;;;;;;;;;;;;;;1.73;100.00;101016.19;4986322;28;20050;-51
2021/03/19 00:53:07;;;;;;;26.73;16.40;;;;;;;1.70;100.00;101015.97;4991301;28;19922;-50
2021/03/19 00:55:34;;;;;;;26.30;17.27;;;;;;;1.83;100.00;101016.78;4985379;28;20050;-50
2021/03/19 00:58:02;;;;;;;20.85;15.50;;;;;;;1.82;100.00;101007.47;4985939;28;20050;-50
2021/03/19 01:00:31;;;;;;;22.23;14.73;;;;;;;1.92;100.00;101027.50;4986323;28;20053;-49
2021/03/19 01:02:59;;;;;;;27.05;15.20;;;;;;;1.84;100.00;101029.50;4985247;28;20050;-49
2021/03/19 01:05:34;;;;;;;21.48;13.40;;;;;;;1.77;100.00;101027.38;4986113;28;20519;-52
2021/03/19 01:08:02;;;;;;;18.45;13.65;;;;;;;1.78;100.00;101029.97;4991503;28;20137;-49
2021/03/19 01:10:33;;;;;;;18.05;13.70;;;;;;;1.76;100.00;101033.19;4985602;28;20048;-52
2021/03/19 01:13:00;;;;;;;19.48;14.10;;;;;;;1.59;100.00;101031.19;4985254;28;20054;-54
2021/03/19 01:15:28;;;;;;;22.90;14.43;;;;;;;1.44;100.00;101034.44;4988486;28;20046;-49
2021/03/19 01:17:54;;;;;;;22.90;13.98;;;;;;;1.42;100.00;101030.91;4994302;28;20042;-50
2021/03/19 01:20:24;;;;;;;22.20;14.77;;;;;;;1.35;100.00;101028.75;4989744;28;20489;-48
2021/03/19 01:22:51;;;;;;;26.23;16.27;;;;;;;1.39;100.00;101029.84;4988578;28;20443;-48
2021/03/19 01:25:20;;;;;;;25.45;16.02;;;;;;;1.42;100.00;101040.13;4989905;28;20058;-52
2021/03/19 01:27:47;;;;;;;27.13;16.85;;;;;;;1.33;100.00;101042.03;4988612;28;20046;-49
2021/03/19 01:30:16;;;;;;;25.70;16.73;;;;;;;1.39;100.00;101035.78;4999439;28;20050;-54
2021/03/19 01:32:45;;;;;;;25.45;16.40;;;;;;;1.41;100.00;101040.91;4988442;28;20053;-49
2021/03/19 01:35:14;;;;;;;27.33;18.17;;;;;;;1.29;100.00;101035.91;4989287;28;20050;-53
2021/03/19 01:37:42;;;;;;;26.15;16.45;;;;;;;1.25;100.00;101049.97;4988550;28;20138;-52
2021/03/19 01:40:11;;;;;;;26.98;17.40;;;;;;;1.26;100.00;101046.66;4989204;28;20050;-53
2021/03/19 01:42:44;;;;;;;27.30;17.13;;;;;;;1.29;100.00;101045.97;4988416;28;20061;-51
2021/03/19 01:45:29;;;;;;;28.52;17.10;;;;;;;1.35;100.00;101046.44;4988989;28;20558;-52
2021/03/19 01:48:33;;;;;;;27.73;16.40;;;;;;;1.49;100.00;101043.19;4988242;28;20515;-46
2021/03/19 01:51:37;;;;;;;25.90;15.95;;;;;;;1.43;100.00;101046.94;4988428;28;20121;-50
2021/03/19 01:54:41;;;;;;;24.67;15.65;;;;;;;1.37;100.00;101037.31;4988830;28;20057;-51
2021/03/19 01:57:44;;;;;;;22.30;15.50;;;;;;;1.35;100.00;101036.34;4988562;28;20055;-49
2021/03/19 02:00:49;;;;;;;25.58;16.35;;;;;;;1.27;100.00;101039.97;4988784;28;20184;-53
2021/03/19 02:03:53;;;;;;;21.77;14.60;;;;;;;1.38;100.00;101045.75;4988548;28;20046;-53
2021/03/19 02:06:57;;;;;;;24.77;16.13;;;;;;;1.28;100.00;101042.59;4988745;28;20085;-49
2021/03/19 02:10:01;;;;;;;24.83;15.45;;;;;;;1.38;100.00;101044.09;4992852;28;20090;-48
2021/03/19 02:13:05;;;;;;;23.52;14.80;;;;;;;1.68;100.00;101044.41;4992921;28;20045;-50
2021/03/19 02:16:09;;;;;;;22.15;13.77;;;;;;;1.87;100.00;101047.38;4987189;28;20049;-53
2021/03/19 02:19:13;;;;;;;20.25;13.60;;;;;;;1.64;100.00;101047.50;4987560;28;20483;-49
2021/03/19 02:22:31;;;;;;;23.67;14.43;;;;;;;1.27;100.00;101043.38;4986912;28;20042;-54
2021/03/19 02:25:37;;;;;;;22.35;13.18;;;;;;;1.23;100.00;101046.44;4992850;28;20492;-50
2021/03/19 02:28:40;;;;;;;23.00;13.60;;;;;;;1.31;100.00;101049.50;4987646;28;20057;-53
2021/03/19 02:31:10;;;;;;;23.10;13.10;;;;;;;1.45;100.00;101051.31;4988498;28;20057;-49
2021/03/19 02:33:47;;;;;;;21.10;13.63;;;;;;;1.54;100.00;101051.06;4987222;28;20503;-51
2021/03/19 02:36:17;;;;;;;21.13;13.65;;;;;;;1.44;100.00;101057.16;4988480;28;20049;-52
2021/03/19 02:38:44;;;;;;;21.15;13.27;;;;;;;1.24;100.00;101053.25;4986931;28;20054;-53
2021/03/19 02:41:10;;;;;;;24.25;13.35;;;;;;;1.54;100.00;101053.59;4988126;28;20050;-53
2021/03/19 02:43:37;;;;;;;26.95;14.77;;;;;;;1.26;100.00;101059.28;4987091;28;20421;-50
2021/03/19 02:46:04;;;;;;;25.38;14.40;;;;;;;1.50;100.00;101062.59;4987708;28;20405;-50
2021/03/19 02:48:30;;;;;;;25.08;15.20;;;;;;;1.46;100.00;101064.81;4987209;28;20106;-52
2021/03/19 02:50:57;;;;;;;26.63;15.65;;;;;;;1.20;100.00;101063.91;4986771;28;20120;-50
2021/03/19 02:53:27;;;;;;;24.92;15.63;;;;;;;1.28;100.00;101065.28;4992407;28;20802;-48
2021/03/19 02:55:55;;;;;;;31.67;16.52;;;;;;;1.07;100.00;101071.41;4986801;28;20042;-50
2021/03/19 02:58:21;;;;;;;29.42;16.55;;;;;;;1.51;100.00;101064.34;4988347;28;20555;-49
2021/03/19 03:00:49;;;;;;;31.70;16.73;;;;;;;0.97;100.00;101079.06;4987153;28;20057;-52
2021/03/19 03:03:16;;;;;;;32.25;18.45;;;;;;;1.23;100.00;101075.84;4988126;28;20096;-49
2021/03/19 03:05:43;;;;;;;32.33;17.50;;;;;;;1.02;100.00;101076.13;4986298;28;20054;-49
2021/03/19 03:08:12;;;;;;;40.00;19.35;;;;;;;0.79;100.00;101073.63;4987560;28;20053;-52
2021/03/19 03:10:40;;;;;;;40.85;20.92;;;;;;;0.84;100.00;101071.44;4986668;28;20054;-49
2021/03/19 03:13:08;;;;;;;40.00;20.17;;;;;;;0.95;100.00;101071.41;4987547;28;20465;-54
2021/03/19 03:15:36;;;;;;;39.42;19.63;;;;;;;0.50;100.00;101069.00;4986101;28;20049;-50
2021/03/19 03:18:05;;;;;;;44.22;21.15;;;;;;;0.79;100.00;101072.72;4987223;28;20058;-51
2021/03/19 03:20:38;;;;;;;42.03;20.50;;;;;;;0.61;100.00;101074.84;4986398;28;20046;-48
2021/03/19 03:23:05;;;;;;;42.28;20.17;;;;;;;0.35;100.00;101083.03;4987294;28;20049;-50
2021/03/19 03:25:32;;;;;;;41.83;20.55;;;;;;;0.19;100.00;101074.38;4986288;28;20050;-52
2021/03/19 03:27:59;;;;;;;41.70;22.23;;;;;;;0.12;100.00;101077.19;4986149;28;20058;-47
2021/03/19 03:30:34;;;;;;;44.38;21.73;;;;;;;0.42;100.00;101092.81;4986898;28;20688;-52
2021/03/19 03:33:03;;;;;;;35.83;16.25;;;;;;;0.31;100.00;101089.47;4986578;28;20085;-53
2021/03/19 03:35:30;;;;;;;48.00;23.42;;;;;;;0.38;100.00;101090.81;4986118;28;20065;-53
2021/03/19 03:37:58;;;;;;;50.20;22.58;;;;;;;0.44;100.00;101086.22;4985467;28;20748;-49
2021/03/19 03:40:34;;;;;;;48.33;24.50;;;;;;;0.34;100.00;101089.72;4991499;28;20049;-49
2021/03/19 03:43:02;;;;;;;49.17;24.52;;;;;;;0.85;100.00;101099.25;4986498;28;20050;-49
2021/03/19 03:45:29;;;;;;;48.90;24.77;;;;;;;0.95;100.00;101090.69;4985983;28;20046;-49
2021/03/19 03:47:56;;;;;;;52.75;23.05;;;;;;;0.70;100.00;101088.97;4985779;28;20058;-49
2021/03/19 03:50:25;;;;;;;44.83;24.55;;;;;;;0.80;100.00;101085.47;4986794;28;20046;-52
2021/03/19 03:53:06;;;;;;;49.10;24.50;;;;;;;0.61;100.00;101089.97;4986602;28;20457;-55
2021/03/19 03:55:33;;;;;;;50.85;24.58;;;;;;;0.74;100.00;101096.00;4985767;28;20046;-52
2021/03/19 03:58:01;;;;;;;46.35;23.85;;;;;;;0.99;100.00;101093.53;4985690;28;20069;-50
2021/03/19 04:00:28;;;;;;;47.47;22.98;;;;;;;1.00;100.00;101095.28;4986255;28;20057;-48
2021/03/19 04:02:55;;;;;;;42.88;22.77;;;;;;;1.01;100.00;101086.09;4985954;28;20070;-48
2021/03/19 04:05:36;;;;;;;47.55;23.33;;;;;;;1.16;100.00;101099.78;4986990;28;20056;-48
2021/03/19 04:08:04;;;;;;;42.13;22.70;;;;;;;0.82;100.00;101095.66;4986660;28;20074;-49
2021/03/19 04:10:31;;;;;;;50.28;24.55;;;;;;;0.95;100.00;101096.63;4985877;28;20749;-48
2021/03/19 04:12:58;;;;;;;52.10;24.23;;;;;;;1.06;100.00;101099.88;4985845;28;20054;-50
2021/03/19 04:15:25;;;;;;;51.05;24.25;;;;;;;0.70;100.00;101106.63;4986681;28;20384;-49
2021/03/19 04:17:59;;;;;;;52.40;23.65;;;;;;;0.92;100.00;101110.66;4985799;28;20050;-53
2021/03/19 04:20:27;;;;;;;54.15;23.67;;;;;;;1.17;100.00;101109.09;4991419;28;20462;-55
2021/03/19 04:22:56;;;;;;;47.35;23.52;;;;;;;1.16;100.00;101106.47;4985649;28;20046;-54
2021/03/19 04:25:23;;;;;;;43.63;20.92;;;;;;;1.46;100.00;101107.69;4986628;28;20073;-51
2021/03/19 04:28:03;;;;;;;39.05;19.15;;;;;;;1.59;98.95;101105.25;4985952;28;20061;-51
2021/03/19 04:30:36;;;;;;;39.78;19.98;;;;;;;1.56;99.08;101111.72;4991250;28;20061;-49
2021/03/19 04:33:03;;;;;;;34.75;18.60;;;;;;;1.61;98.45;101108.75;4987172;28;20046;-53
2021/03/19 04:35:32;;;;;;;37.75;19.17;;;;;;;1.36;98.94;101110.38;4986386;28;20042;-56
2021/03/19 04:38:07;;;;;;;37.90;20.60;;;;;;;1.41;98.67;101116.59;4989927;28;20054;-53
2021/03/19 04:40:34;;;;;;;33.75;18.13;;;;;;;1.39;97.76;101113.13;4986418;28;20053;-51
2021/03/19 04:43:02;;;;;;;35.38;18.73;;;;;;;1.12;98.83;101119.63;4990749;28;20049;-53
2021/03/19 04:45:29;;;;;;;35.08;19.08;;;;;;;1.08;100.00;101121.06;4986461;28;20531;-51
2021/03/19 04:47:56;;;;;;;41.00;19.98;;;;;;;1.09;99.73;101120.28;4988592;28;20054;-49
2021/03/19 04:50:24;;;;;;;35.45;18.50;;;;;;;1.36;99.49;101123.84;4997219;28;20124;-52
2021/03/19 04:52:52;;;;;;;31.48;16.33;;;;;;;0.92;100.00;101129.16;4990358;28;20070;-52
2021/03/19 04:55:19;;;;;;;33.33;16.77;;;;;;;1.20;99.44;101137.06;4991555;28;20658;-51
2021/03/19 04:57:47;;;;;;;32.83;17.13;;;;;;;1.38;98.64;101137.44;4990315;28;20758;-49
2021/03/19 05:00:14;;;;;;;33.70;18.70;;;;;;;1.23;98.29;101141.44;4994039;28;20060;-50
2021/03/19 05:02:44;;;;;;;32.85;17.95;;;;;;;1.27;98.32;101139.22;4990074;28;20074;-50
2021/03/19 05:05:15;;;;;;;33.90;18.23;;;;;;;1.04;99.15;101144.31;4990822;28;20052;-54
2021/03/19 05:07:41;;;;;;;34.53;16.88;;;;;;;1.15;99.24;101145.94;4989977;28;20046;-53
2021/03/19 05:10:10;;;;;;;32.33;16.77;;;;;;;1.11;98.10;101145.59;4991202;28;20592;-49
2021/03/19 05:12:37;;;;;;;33.08;17.38;;;;;;;1.24;98.31;101149.09;4989847;28;20093;-51
2021/03/19 05:15:05;;;;;;;31.05;16.83;;;;;;;0.97;99.24;101154.72;4990478;28;20054;-53
2021/03/19 05:17:34;;;;;;;29.30;15.65;;;;;;;0.93;98.88;101151.13;4990046;28;20728;-50
2021/03/19 05:20:05;;;;;;;30.70;15.88;;;;;;;0.88;99.94;101146.47;4992860;28;20053;-53
2021/03/19 05:22:32;;;;;;;30.98;16.90;;;;;;;0.94;99.21;101154.50;4992557;28;20424;-48
2021/03/19 05:24:59;;;;;;;36.05;18.92;;;;;;;0.80;99.99;101150.13;4992283;28;20064;-50
2021/03/19 05:27:26;;;;;;;35.15;19.13;;;;;;;0.72;100.00;101154.59;4990107;28;20046;-54
2021/03/19 05:29:55;;;;;;;33.78;18.75;;;;;;;0.63;100.00;101154.81;4990247;28;20046;-51
2021/03/19 05:32:26;;;;;;;35.85;18.83;;;;;;;0.46;100.00;101157.72;4991687;28;20092;-52
2021/03/19 05:34:53;;;;;;;40.13;21.02;;;;;;;0.87;99.85;101168.31;4992165;28;20046;-52
2021/03/19 05:37:20;;;;;;;33.53;19.17;;;;;;;0.87;99.58;101165.78;4990857;28;20046;-50
2021/03/19 05:39:47;;;;;;;36.42;19.17;;;;;;;0.83;99.45;101167.97;4989303;28;20424;-51
2021/03/19 05:42:17;;;;;;;34.08;19.00;;;;;;;0.73;100.00;101164.78;4990626;28;20050;-52
2021/03/19 05:44:45;;;;;;;36.55;20.05;;;;;;;0.66;100.00;101164.25;4989571;28;20043;-50
2021/03/19 05:47:14;;;;;;;36.30;19.73;;;;;;;0.97;100.00;101169.84;4989700;28;21076;-49
2021/03/19 05:49:41;;;;;;;33.33;19.85;;;;;;;0.87;99.82;101175.00;4997550;28;20045;-52
2021/03/19 05:52:08;;;;;;;34.78;19.40;;;;;;;1.00;97.41;101173.47;4995212;28;20058;-53
2021/03/19 05:54:34;;;;;;;34.75;19.17;;;;;;;0.78;98.45;101170.16;4994688;28;20424;-52
2021/03/19 05:57:04;;;;;;;36.58;19.90;;;;;;;1.49;96.17;101181.09;4991779;28;20369;-51
2021/03/19 05:59:32;;;;;;;38.95;20.42;;;;;;;0.99;96.92;101180.94;4991215;28;20046;-53
2021/03/19 06:02:00;;;;;;;41.88;21.38;;;;;;;1.34;96.27;101180.91;4991986;28;20578;-54
2021/03/19 06:04:31;;;;;;;40.75;21.60;;;;;;;1.35;96.10;101177.63;4989481;28;20108;-53
2021/03/19 06:07:01;;;;;;;41.70;21.35;;;;;;;1.14;95.80;101183.66;4990145;28;20073;-55
2021/03/19 06:09:31;;;;;;;44.13;23.67;;;;;;;1.13;96.18;101180.25;4993701;28;20046;-54
2021/03/19 06:12:10;;;;;;;42.17;22.85;;;;;;;0.99;95.36;101179.28;4993175;28;20051;-53
2021/03/19 06:14:51;;;;;;;45.92;24.67;;;;;;;0.93;97.16;101186.41;4988618;28;20046;-50
2021/03/19 06:17:21;;;;;;;47.95;23.73;;;;;;;1.25;95.91;101187.84;4994872;28;20053;-50
2021/03/19 06:20:06;;;;;;;44.35;22.83;;;;;;;1.41;95.25;101187.25;4988501;28;20149;-46
2021/03/19 06:22:35;;;;;;;43.88;22.30;;;;;;;2.29;92.37;101193.31;4991065;28;20045;-45
2021/03/19 06:25:19;;;;;;;39.22;21.30;;;;;;;3.25;84.96;101192.78;4994674;28;20591;-46
2021/03/19 06:27:52;;;;;;;33.45;18.95;;;;;;;3.93;82.17;101186.03;4994582;28;20058;-47
2021/03/19 06:30:41;;;;;;;36.10;19.60;;;;;;;4.11;78.75;101190.44;4985369;28;20056;-47
2021/03/19 06:33:13;;;;;;;31.40;17.92;;;;;;;5.28;75.91;101193.78;4989272;28;20046;-49
2021/03/19 06:35:43;;;;;;;32.38;18.63;;;;;;;5.61;72.48;101199.81;4995227;28;20137;-49
2021/03/19 06:38:33;;;;;;;34.92;19.20;;;;;;;4.95;74.89;101208.91;4993391;28;20405;-50
2021/03/19 06:41:20;;;;;;;30.52;19.15;;;;;;;4.25;76.21;101205.69;4980191;28;20042;-51
2021/03/19 06:43:49;;;;;;;34.55;19.70;;;;;;;4.67;75.94;101213.16;4992840;28;20394;-50
2021/03/19 06:46:25;;;;;;;34.55;19.33;;;;;;;4.45;78.20;101216.13;4991094;28;20551;-49
2021/03/19 06:48:54;;;;;;;38.88;20.95;;;;;;;3.50;80.53;101221.38;4990285;28;20038;-53
2021/03/19 06:51:34;;;;;;;35.88;20.95;;;;;;;3.72;81.62;101220.19;4989052;28;20056;-47
2021/03/19 06:54:10;;;;;;;38.28;20.30;;;;;;;4.26;78.75;101231.91;4987916;28;20066;-54
2021/03/19 06:56:38;;;;;;;38.28;21.17;;;;;;;3.97;79.73;101237.75;4987582;28;20050;-49
2021/03/19 06:59:24;;;;;;;35.97;20.13;;;;;;;4.13;77.85;101230.31;4988567;28;20472;-49
2021/03/19 07:01:51;;;;;;;41.55;22.45;;;;;;;3.60;79.99;101240.53;4987855;28;20046;-48
2021/03/19 07:04:18;;;;;;;42.35;21.52;;;;;;;4.04;78.33;101248.34;4988863;28;20050;-53
2021/03/19 07:06:51;;;;;;;36.35;19.13;;;;;;;3.91;78.28;101252.59;4987618;28;20537;-48
2021/03/19 07:09:36;;;;;;;38.83;20.35;;;;;;;3.46;78.22;101254.88;4994142;28;20133;-51
2021/03/19 07:12:27;;;;;;;38.92;19.40;;;;;;;3.25;82.00;101269.59;4987276;28;20051;-50
2021/03/19 07:15:22;;;;;;;36.55;18.65;;;;;;;3.37;81.08;101266.94;4987449;28;20050;-51
2021/03/19 07:18:07;;;;;;;35.10;18.83;;;;;;;2.42;83.98;101265.78;4991148;28;20053;-47
2021/03/19 07:20:40;;;;;;;35.65;18.48;;;;;;;3.27;80.86;101270.53;4995604;28;20049;-48
2021/03/19 07:23:17;;;;;;;36.97;19.70;;;;;;;3.18;81.89;101267.44;4993065;28;20054;-48
2021/03/19 07:25:48;;;;;;;36.78;19.08;;;;;;;2.45;85.82;101267.63;4986673;28;20512;-48
2021/03/19 07:28:44;;;;;;;37.10;18.63;;;;;;;2.78;83.67;101274.97;4990031;28;20046;-48
2021/03/19 07:31:32;;;;;;;34.25;17.65;;;;;;;3.12;81.78;101273.75;4992067;28;20037;-54
2021/03/19 07:34:17;;;;;;;36.00;18.25;;;;;;;3.12;82.91;101269.56;4990310;28;20162;-50
2021/03/19 07:36:43;;;;;;;34.40;18.35;;;;;;;3.88;79.83;101270.13;4988167;28;20049;-51
2021/03/19 07:39:39;;;;;;;34.95;17.35;;;;;;;3.71;78.28;101269.09;4991772;28;20046;-49
2021/03/19 07:42:27;;;;;;;33.22;18.10;;;;;;;3.19;80.63;101273.34;4989252;28;20049;-48
2021/03/19 07:45:00;;;;;;;39.65;19.38;;;;;;;3.18;82.45;101277.56;4985271;28;20061;-49
2021/03/19 07:47:54;;;;;;;37.05;18.20;;;;;;;3.39;81.45;101285.66;4993122;28;20149;-50
2021/03/19 07:50:44;;;;;;;30.67;15.80;;;;;;;4.14;76.79;101287.81;4992117;28;20045;-50
2021/03/19 07:53:53;;;;;;;32.15;17.25;;;;;;;4.12;78.83;101294.44;4990724;28;20038;-48
2021/03/19 07:56:47;;;;;;;27.40;15.15;;;;;;;3.85;77.67;101296.16;4981311;28;20053;-47
2021/03/19 07:59:23;;;;;;;28.38;15.82;;;;;;;3.70;80.01;101293.56;4987773;28;20062;-50
2021/03/19 08:01:49;;;;;;;26.20;14.57;;;;;;;3.71;78.93;101296.94;4991249;28;20038;-45
2021/03/19 08:04:42;;;;;;;23.90;14.32;;;;;;;3.71;76.55;101302.88;4987417;28;20073;-47
2021/03/19 08:07:36;;;;;;;24.77;14.15;;;;;;;3.20;77.65;101303.84;4992153;28;20045;-46
2021/03/19 08:10:18;;;;;;;25.23;14.55;;;;;;;3.46;78.23;101312.22;4983450;28;20046;-48
2021/03/19 08:13:01;;;;;;;28.58;16.75;;;;;;;3.47;79.01;101314.00;4986708;28;20050;-45
2021/03/19 08:15:40;;;;;;;25.98;14.55;;;;;;;3.80;77.83;101326.28;4991110;28;20125;-44
2021/03/19 08:18:24;;;;;;;28.40;16.00;;;;;;;3.52;76.34;101325.31;4987248;28;20061;-50
2021/03/19 08:21:20;;;;;;;27.33;15.82;;;;;;;3.71;76.59;101320.63;4987439;28;20066;-46
2021/03/19 08:24:08;;;;;;;28.40;15.68;;;;;;;4.16;76.06;101314.13;4986001;28;20052;-47
2021/03/19 08:26:41;;;;;;;26.75;14.50;;;;;;;4.25;74.05;101322.31;4985156;28;20053;-44
2021/03/19 08:29:19;;;;;;;26.45;14.73;;;;;;;4.20;74.27;101320.25;4986381;28;20416;-46
2021/03/19 08:32:41;;;;;;;22.70;13.55;;;;;;;4.18;72.52;101327.78;4985476;28;20133;-44
2021/03/19 08:35:21;;;;;;;27.13;14.32;;;;;;;4.18;73.80;101330.31;4912306;29;20134;-45
2021/03/19 08:38:16;;;;;;;21.90;13.85;;;;;;;4.09;75.31;101333.13;4988760;28;20038;-45
2021/03/19 08:40:55;;;;;;;22.52;13.68;;;;;;;4.02;75.92;101332.66;4944382;28;20050;-46
2021/03/19 08:43:45;;;;;;;23.67;13.90;;;;;;;4.08;75.96;101338.13;4989083;28;20050;-44
2021/03/19 08:46:20;;;;;;;27.55;15.55;;;;;;;4.54;75.97;101346.00;4986797;28;20053;-47
2021/03/19 08:48:57;;;;;;;26.50;16.23;;;;;;;4.01;76.24;101343.56;4986437;28;20070;-45
2021/03/19 08:51:27;;;;;;;27.88;15.93;;;;;;;3.92;77.49;101341.34;4993840;28;20528;-47
2021/03/19 08:54:13;;;;;;;29.17;16.50;;;;;;;4.44;76.28;101339.50;4986306;28;20938;-45
2021/03/19 08:57:29;;;;;;;23.33;14.77;;;;;;;4.58;75.07;101338.69;4987926;28;20153;-47
2021/03/19 08:59:56;;;;;;;22.95;14.27;;;;;;;4.54;76.33;101348.53;4984407;28;20057;-47
2021/03/19 09:02:25;;;;;;;23.92;14.73;;;;;;;4.93;75.85;101346.63;4985844;28;20458;-44
2021/03/19 09:04:55;;;;;;;23.05;14.77;;;;;;;5.54;73.27;101350.16;4984611;28;20038;-48
2021/03/19 09:07:40;;;;;;;19.85;12.77;;;;;;;5.05;74.15;101348.22;4985494;28;20052;-49
2021/03/19 09:10:32;;;;;;;17.55;11.40;;;;;;;4.62;76.45;101348.97;4985776;28;20050;-50
2021/03/19 09:13:00;;;;;;;16.75;11.60;;;;;;;4.52;76.73;101355.16;4985967;28;20714;-46
2021/03/19 09:15:46;;;;;;;20.42;12.85;;;;;;;3.78;79.63;101358.22;4986258;28;20069;-46
2021/03/19 09:18:47;;;;;;;18.17;12.15;;;;;;;4.64;77.59;101350.84;4987131;28;20661;-45
2021/03/19 09:21:28;;;;;;;16.60;11.07;;;;;;;3.51;80.08;101351.38;4988029;28;20038;-48
2021/03/19 09:24:15;;;;;;;20.40;12.35;;;;;;;3.80;80.70;101354.13;4985457;28;20046;-49
2021/03/19 09:26:51;;;;;;;18.30;10.63;;;;;;;4.21;79.03;101360.03;4985769;28;20612;-48
2021/03/19 09:29:17;;;;;;;17.10;10.27;;;;;;;3.86;81.61;101350.22;4986240;28;20061;-50
2021/03/19 09:31:53;;;;;;;14.63;9.52;;;;;;;3.61;83.58;101357.94;4985746;28;20065;-50
2021/03/19 09:34:42;;;;;;;13.15;9.20;;;;;;;3.79;84.33;101367.59;4990200;28;20049;-48
2021/03/19 09:37:31;;;;;;;11.52;7.55;;;;;;;3.82;83.92;101361.81;4989530;28;20054;-48
2021/03/19 09:40:14;;;;;;;17.27;10.02;;;;;;;4.14;81.61;101358.78;4989572;28;20675;-44
2021/03/19 09:42:49;;;;;;;10.70;6.65;;;;;;;3.93;82.33;101370.09;4990799;28;20054;-49
2021/03/19 09:45:20;;;;;;;10.57;6.82;;;;;;;4.06;83.19;101359.94;4995260;28;20061;-52
2021/03/19 09:47:51;;;;;;;11.18;6.30;;;;;;;3.91;83.68;101366.59;4988817;28;20049;-48
2021/03/19 09:50:29;;;;;;;8.35;6.03;;;;;;;3.81;82.82;101371.06;4990421;28;20074;-46
2021/03/19 09:53:22;;;;;;;9.80;6.95;;;;;;;3.46;84.68;101370.47;4989181;28;20080;-45
2021/03/19 09:55:52;;;;;;;8.68;6.18;;;;;;;3.69;84.91;101375.34;4988728;28;20049;-50
2021/03/19 09:58:21;;;;;;;11.93;7.05;;;;;;;3.77;85.12;101385.97;4990182;28;20050;-47
2021/03/19 10:00:50;;;;;;;14.30;8.27;;;;;;;4.00;84.71;101383.25;4988508;28;20042;-52
2021/03/19 10:03:17;;;;;;;11.95;7.20;;;;;;;3.85;84.02;101391.56;4990622;28;20136;-49
2021/03/19 10:05:48;;;;;;;11.63;6.57;;;;;;;4.03;82.83;101385.13;4988272;28;20054;-51
2021/03/19 10:08:29;;;;;;;12.07;6.75;;;;;;;4.51;82.34;101386.41;4990001;28;20764;-46
2021/03/19 10:11:06;;;;;;;8.48;5.72;;;;;;;5.73;76.49;101385.97;4988499;28;20054;-50
2021/03/19 10:13:35;;;;;;;8.13;5.90;;;;;;;6.19;76.03;101382.56;4990760;28;20141;-45
2021/03/19 10:16:03;;;;;;;8.63;5.68;;;;;;;6.73;73.89;101387.19;4992505;28;20054;-44
2021/03/19 10:18:46;;;;;;;9.68;5.43;;;;;;;7.11;68.48;101383.19;4995879;28;20563;-43
2021/03/19 10:21:17;;;;;;;6.47;4.65;;;;;;;7.22;67.36;101383.75;4993827;28;20046;-44
2021/03/19 10:23:52;;;;;;;6.28;4.65;;;;;;;7.17;67.34;101383.53;4988739;28;20050;-51
2021/03/19 10:26:46;;;;;;;6.35;4.15;;;;;;;6.51;67.18;101382.63;4988987;28;20049;-55
2021/03/19 10:29:15;;;;;;;7.60;5.18;;;;;;;6.51;67.62;101385.19;4988358;28;20072;-46
2021/03/19 10:32:10;;;;;;;6.82;5.65;;;;;;;6.21;70.27;101381.00;4997639;28;20136;-48
2021/03/19 10:34:36;;;;;;;6.13;4.78;;;;;;;5.86;71.17;101379.91;4985034;28;20120;-46
2021/03/19 10:37:26;;;;;;;4.88;4.20;;;;;;;5.30;72.36;101375.91;4991933;28;20635;-49
2021/03/19 10:40:04;;;;;;;8.05;5.43;;;;;;;5.63;70.39;101381.16;4973563;28;20795;-47
2021/03/19 10:42:41;;;;;;;7.00;4.35;;;;;;;5.33;67.88;101378.63;4995487;28;20039;-49
2021/03/19 10:45:29;;;;;;;5.88;3.70;;;;;;;5.40;69.51;101374.75;4990967;28;20061;-50
2021/03/19 10:48:24;;;;;;;5.28;3.47;;;;;;;5.40;67.22;101378.97;4987602;28;20540;-51
2021/03/19 10:51:15;;;;;;;4.25;3.30;;;;;;;5.01;69.92;101381.81;4987968;28;20061;-47
2021/03/19 10:53:56;;;;;;;5.20;3.22;;;;;;;5.89;67.65;101375.00;4987692;28;20050;-52
2021/03/19 10:56:26;;;;;;;5.15;3.00;;;;;;;5.99;65.41;101379.81;4987482;28;20053;-49
2021/03/19 10:59:12;;;;;;;4.45;3.15;;;;;;;7.23;62.57;101378.72;4991924;28;20042;-45
2021/03/19 11:01:42;;;;;;;;;;;;;;;8.34;59.69;101377.22;4987269;28;20046;-45
2021/03/19 11:04:32;;;;;;;5.28;3.00;;;;;;;9.29;55.51;101379.75;4988329;28;19926;-46
2021/03/19 11:07:25;;;;;;;4.45;3.05;;;;;;;10.84;51.19;101376.38;4985820;28;20056;-49
2021/03/19 11:10:09;;;;;;;3.42;2.70;;;;;;;12.54;47.29;101371.63;4975585;28;20145;-51
2021/03/19 11:12:43;;;;;;;5.03;2.85;;;;;;;13.24;44.05;101380.41;4994162;28;20066;-47
2021/03/19 11:15:16;;;;;;;2.80;2.10;;;;;;;11.82;45.28;101382.28;4990112;28;20596;-52
2021/03/19 11:17:44;;;;;;;3.55;2.70;;;;;;;11.61;45.59;101381.56;4990503;28;20062;-46
2021/03/19 11:20:17;;;;;;;3.00;2.38;;;;;;;9.86;51.92;101372.69;4988413;28;20043;-44
2021/03/19 11:22:46;;;;;;;3.95;2.33;;;;;;;10.18;49.64;101375.63;4987730;28;21612;-47
2021/03/19 11:25:26;;;;;;;3.22;2.65;;;;;;;11.53;49.34;101385.56;4988918;28;20045;-45
2021/03/19 11:27:54;;;;;;;2.92;2.70;;;;;;;11.26;48.03;101388.94;4992572;28;20042;-47
2021/03/19 11:30:35;;;;;;;3.65;2.25;;;;;;;8.74;53.98;101382.50;4989069;28;20049;-49
2021/03/19 11:33:13;;;;;;;2.58;2.13;;;;;;;7.43;57.88;101397.53;4987998;28;20085;-45
2021/03/19 11:35:40;;;;;;;3.80;2.15;;;;;;;6.84;59.35;101387.72;4991141;28;20050;-47
2021/03/19 11:38:31;;;;;;;3.17;1.98;;;;;;;6.74;62.01;101391.47;4989990;28;20054;-44
2021/03/19 11:40:58;;;;;;;1.90;1.50;;;;;;;5.97;64.69;101398.34;4974294;28;20073;-43
2021/03/19 11:43:24;;;;;;;3.75;2.00;;;;;;;8.72;59.18;101388.31;4992581;28;20128;-47
2021/03/19 11:45:51;;;;;;;2.50;2.30;;;;;;;10.11;54.30;101397.53;4987397;28;20054;-45
2021/03/19 11:48:27;;;;;;;4.13;3.42;;;;;;;9.89;53.98;101395.84;4988521;28;20150;-47
2021/03/19 11:51:31;;;;;;;3.42;2.97;;;;;;;8.23;60.67;101399.72;4995461;28;20065;-45
2021/03/19 11:54:00;;;;;;;3.03;2.75;;;;;;;7.04;62.17;101399.84;4993661;28;20548;-44
2021/03/19 11:56:30;;;;;;;4.43;2.97;;;;;;;6.50;64.72;101398.69;4992096;28;20410;-46